sensor_id;sensor_type;location;lat;lon;timestamp;temperature;humidity
71039;SHT30;58692;43.212;27.908;2023-08-06T00:01:48;25.54;89.74
71039;SHT30;58692;43.212;27.908;2023-08-06T00:04:13;25.53;89.95
71039;SHT30;58692;43.212;27.908;2023-08-06T00:06:39;25.50;89.90
71039;SHT30;58692;43.212;27.908;2023-08-06T00:09:04;25.46;89.58
71039;SHT30;58692;43.212;27.908;2023-08-06T00:11:30;25.49;89.57
71039;SHT30;58692;43.212;27.908;2023-08-06T00:13:55;25.46;89.34
71039;SHT30;58692;43.212;27.908;2023-08-06T00:16:21;25.42;89.32
71039;SHT30;58692;43.212;27.908;2023-08-06T00:18:46;25.40;89.15
71039;SHT30;58692;43.212;27.908;2023-08-06T00:21:12;25.35;89.25
71039;SHT30;58692;43.212;27.908;2023-08-06T00:23:38;25.35;89.20
71039;SHT30;58692;43.212;27.908;2023-08-06T00:26:04;25.35;89.08
71039;SHT30;58692;43.212;27.908;2023-08-06T00:28:29;25.36;89.00
71039;SHT30;58692;43.212;27.908;2023-08-06T00:30:55;25.35;89.06
71039;SHT30;58692;43.212;27.908;2023-08-06T00:33:22;25.36;89.02
71039;SHT30;58692;43.212;27.908;2023-08-06T00:35:47;25.33;88.93
71039;SHT30;58692;43.212;27.908;2023-08-06T00:38:13;25.43;88.72
71039;SHT30;58692;43.212;27.908;2023-08-06T00:40:38;25.47;88.51
71039;SHT30;58692;43.212;27.908;2023-08-06T00:43:04;25.39;88.94
71039;SHT30;58692;43.212;27.908;2023-08-06T00:45:30;25.32;89.15
71039;SHT30;58692;43.212;27.908;2023-08-06T00:47:58;25.32;89.27
71039;SHT30;58692;43.212;27.908;2023-08-06T00:50:25;25.35;89.17
71039;SHT30;58692;43.212;27.908;2023-08-06T00:52:50;25.40;89.08
71039;SHT30;58692;43.212;27.908;2023-08-06T00:55:16;25.37;89.19
71039;SHT30;58692;43.212;27.908;2023-08-06T00:57:42;25.42;88.99
71039;SHT30;58692;43.212;27.908;2023-08-06T01:00:08;25.49;88.88
71039;SHT30;58692;43.212;27.908;2023-08-06T01:02:33;25.45;88.84
71039;SHT30;58692;43.212;27.908;2023-08-06T01:04:59;25.47;88.77
71039;SHT30;58692;43.212;27.908;2023-08-06T01:07:46;25.43;88.68
71039;SHT30;58692;43.212;27.908;2023-08-06T01:10:40;25.39;88.83
71039;SHT30;58692;43.212;27.908;2023-08-06T01:15:41;25.46;88.81
71039;SHT30;58692;43.212;27.908;2023-08-06T01:18:09;25.45;88.81
71039;SHT30;58692;43.212;27.908;2023-08-06T01:20:34;25.37;88.96
71039;SHT30;58692;43.212;27.908;2023-08-06T01:23:00;25.36;88.92
71039;SHT30;58692;43.212;27.908;2023-08-06T01:25:34;25.36;88.92
71039;SHT30;58692;43.212;27.908;2023-08-06T01:28:10;25.30;89.05
71039;SHT30;58692;43.212;27.908;2023-08-06T01:30:38;25.27;89.12
71039;SHT30;58692;43.212;27.908;2023-08-06T01:33:08;25.30;89.15
71039;SHT30;58692;43.212;27.908;2023-08-06T01:35:35;25.32;89.07
71039;SHT30;58692;43.212;27.908;2023-08-06T01:38:02;25.33;89.09
71039;SHT30;58692;43.212;27.908;2023-08-06T01:40:28;25.23;89.40
71039;SHT30;58692;43.212;27.908;2023-08-06T01:42:55;25.25;89.57
71039;SHT30;58692;43.212;27.908;2023-08-06T01:45:20;25.22;89.86
71039;SHT30;58692;43.212;27.908;2023-08-06T01:47:46;25.16;90.21
71039;SHT30;58692;43.212;27.908;2023-08-06T01:50:11;25.11;90.39
71039;SHT30;58692;43.212;27.908;2023-08-06T01:52:37;25.15;90.51
71039;SHT30;58692;43.212;27.908;2023-08-06T01:55:02;25.18;90.65
71039;SHT30;58692;43.212;27.908;2023-08-06T01:57:28;25.15;90.60
71039;SHT30;58692;43.212;27.908;2023-08-06T01:59:53;25.14;90.67
71039;SHT30;58692;43.212;27.908;2023-08-06T02:02:20;25.15;90.37
71039;SHT30;58692;43.212;27.908;2023-08-06T02:04:46;25.19;90.10
71039;SHT30;58692;43.212;27.908;2023-08-06T02:07:11;25.18;90.05
71039;SHT30;58692;43.212;27.908;2023-08-06T02:09:37;25.25;89.80
71039;SHT30;58692;43.212;27.908;2023-08-06T02:12:03;25.23;89.83
71039;SHT30;58692;43.212;27.908;2023-08-06T02:14:28;25.29;89.62
71039;SHT30;58692;43.212;27.908;2023-08-06T02:16:54;25.30;89.56
71039;SHT30;58692;43.212;27.908;2023-08-06T02:19:19;25.35;89.17
71039;SHT30;58692;43.212;27.908;2023-08-06T02:21:45;25.32;89.19
71039;SHT30;58692;43.212;27.908;2023-08-06T02:24:10;25.33;89.00
71039;SHT30;58692;43.212;27.908;2023-08-06T02:26:36;25.35;88.99
71039;SHT30;58692;43.212;27.908;2023-08-06T02:29:01;25.36;89.08
71039;SHT30;58692;43.212;27.908;2023-08-06T02:31:27;25.29;89.41
71039;SHT30;58692;43.212;27.908;2023-08-06T02:33:52;25.25;89.95
71039;SHT30;58692;43.212;27.908;2023-08-06T02:36:19;25.16;90.20
71039;SHT30;58692;43.212;27.908;2023-08-06T02:38:44;25.09;90.54
71039;SHT30;58692;43.212;27.908;2023-08-06T02:41:10;25.02;90.79
71039;SHT30;58692;43.212;27.908;2023-08-06T02:43:35;25.06;90.73
71039;SHT30;58692;43.212;27.908;2023-08-06T02:46:01;25.08;90.69
71039;SHT30;58692;43.212;27.908;2023-08-06T02:48:27;25.05;90.72
71039;SHT30;58692;43.212;27.908;2023-08-06T02:50:53;25.09;90.63
71039;SHT30;58692;43.212;27.908;2023-08-06T02:53:18;25.15;90.44
71039;SHT30;58692;43.212;27.908;2023-08-06T02:55:47;25.08;90.62
71039;SHT30;58692;43.212;27.908;2023-08-06T02:58:14;25.12;90.35
71039;SHT30;58692;43.212;27.908;2023-08-06T03:00:40;25.16;90.25
71039;SHT30;58692;43.212;27.908;2023-08-06T03:03:05;25.09;90.39
71039;SHT30;58692;43.212;27.908;2023-08-06T03:05:30;25.12;90.17
71039;SHT30;58692;43.212;27.908;2023-08-06T03:07:56;25.12;90.16
71039;SHT30;58692;43.212;27.908;2023-08-06T03:10:21;25.20;89.44
71039;SHT30;58692;43.212;27.908;2023-08-06T03:12:47;25.16;89.37
71039;SHT30;58692;43.212;27.908;2023-08-06T03:15:13;25.29;89.06
71039;SHT30;58692;43.212;27.908;2023-08-06T03:17:38;25.40;88.52
71039;SHT30;58692;43.212;27.908;2023-08-06T03:20:04;25.46;88.00
71039;SHT30;58692;43.212;27.908;2023-08-06T03:22:30;25.37;88.39
71039;SHT30;58692;43.212;27.908;2023-08-06T03:24:55;25.27;88.65
71039;SHT30;58692;43.212;27.908;2023-08-06T03:27:21;25.19;88.93
71039;SHT30;58692;43.212;27.908;2023-08-06T03:29:49;25.15;89.20
71039;SHT30;58692;43.212;27.908;2023-08-06T03:32:15;25.23;88.96
71039;SHT30;58692;43.212;27.908;2023-08-06T03:34:40;25.27;88.82
71039;SHT30;58692;43.212;27.908;2023-08-06T03:37:06;25.25;88.88
71039;SHT30;58692;43.212;27.908;2023-08-06T03:39:31;25.25;88.92
71039;SHT30;58692;43.212;27.908;2023-08-06T03:41:57;25.23;88.78
71039;SHT30;58692;43.212;27.908;2023-08-06T03:44:22;25.30;88.55
71039;SHT30;58692;43.212;27.908;2023-08-06T03:46:48;25.27;88.52
71039;SHT30;58692;43.212;27.908;2023-08-06T03:49:13;25.30;88.41
71039;SHT30;58692;43.212;27.908;2023-08-06T03:51:39;25.30;88.20
71039;SHT30;58692;43.212;27.908;2023-08-06T03:54:04;25.27;88.14
71039;SHT30;58692;43.212;27.908;2023-08-06T03:56:29;25.20;88.24
71039;SHT30;58692;43.212;27.908;2023-08-06T03:58:55;25.27;88.07
71039;SHT30;58692;43.212;27.908;2023-08-06T04:01:21;25.36;87.85
71039;SHT30;58692;43.212;27.908;2023-08-06T04:03:46;25.39;87.82
71039;SHT30;58692;43.212;27.908;2023-08-06T04:06:12;25.47;87.45
71039;SHT30;58692;43.212;27.908;2023-08-06T04:08:37;25.69;86.89
71039;SHT30;58692;43.212;27.908;2023-08-06T04:11:03;25.94;86.19
71039;SHT30;58692;43.212;27.908;2023-08-06T04:13:28;26.01;85.96
71039;SHT30;58692;43.212;27.908;2023-08-06T04:15:54;26.27;85.12
71039;SHT30;58692;43.212;27.908;2023-08-06T04:18:19;26.45;84.51
71039;SHT30;58692;43.212;27.908;2023-08-06T04:20:46;26.71;83.85
71039;SHT30;58692;43.212;27.908;2023-08-06T04:23:12;26.89;83.00
71039;SHT30;58692;43.212;27.908;2023-08-06T04:25:38;27.22;82.24
71039;SHT30;58692;43.212;27.908;2023-08-06T04:28:04;27.47;81.40
71039;SHT30;58692;43.212;27.908;2023-08-06T04:30:29;27.70;80.59
71039;SHT30;58692;43.212;27.908;2023-08-06T04:32:57;27.95;79.80
71039;SHT30;58692;43.212;27.908;2023-08-06T04:35:23;27.83;80.06
71039;SHT30;58692;43.212;27.908;2023-08-06T04:37:48;27.93;79.86
71039;SHT30;58692;43.212;27.908;2023-08-06T04:40:14;28.09;79.15
71039;SHT30;58692;43.212;27.908;2023-08-06T04:42:39;28.34;78.70
71039;SHT30;58692;43.212;27.908;2023-08-06T04:45:05;28.42;78.23
71039;SHT30;58692;43.212;27.908;2023-08-06T04:47:31;28.87;77.19
71039;SHT30;58692;43.212;27.908;2023-08-06T04:49:56;29.35;75.56
71039;SHT30;58692;43.212;27.908;2023-08-06T04:52:22;29.57;74.72
71039;SHT30;58692;43.212;27.908;2023-08-06T04:54:47;29.85;73.94
71039;SHT30;58692;43.212;27.908;2023-08-06T04:57:13;29.61;74.06
71039;SHT30;58692;43.212;27.908;2023-08-06T04:59:39;29.55;74.28
71039;SHT30;58692;43.212;27.908;2023-08-06T05:02:04;29.40;74.83
71039;SHT30;58692;43.212;27.908;2023-08-06T05:04:30;28.97;76.20
71039;SHT30;58692;43.212;27.908;2023-08-06T05:06:55;28.66;76.78
71039;SHT30;58692;43.212;27.908;2023-08-06T05:09:21;28.17;78.31
71039;SHT30;58692;43.212;27.908;2023-08-06T05:11:47;27.53;80.32
71039;SHT30;58692;43.212;27.908;2023-08-06T05:14:13;27.37;80.90
71039;SHT30;58692;43.212;27.908;2023-08-06T05:16:39;27.20;81.64
71039;SHT30;58692;43.212;27.908;2023-08-06T05:19:04;27.68;80.65
71039;SHT30;58692;43.212;27.908;2023-08-06T05:21:30;27.98;79.54
71039;SHT30;58692;43.212;27.908;2023-08-06T05:23:55;28.17;79.10
71039;SHT30;58692;43.212;27.908;2023-08-06T05:26:21;28.11;79.29
71039;SHT30;58692;43.212;27.908;2023-08-06T05:28:46;28.38;78.79
71039;SHT30;58692;43.212;27.908;2023-08-06T05:31:12;28.28;78.97
71039;SHT30;58692;43.212;27.908;2023-08-06T05:33:37;28.45;78.64
71039;SHT30;58692;43.212;27.908;2023-08-06T05:36:03;29.13;76.84
71039;SHT30;58692;43.212;27.908;2023-08-06T05:38:29;29.26;75.88
71039;SHT30;58692;43.212;27.908;2023-08-06T05:40:55;28.75;76.89
71039;SHT30;58692;43.212;27.908;2023-08-06T05:43:21;28.66;77.22
71039;SHT30;58692;43.212;27.908;2023-08-06T05:45:49;29.27;75.80
71039;SHT30;58692;43.212;27.908;2023-08-06T05:48:15;29.04;75.74
71039;SHT30;58692;43.212;27.908;2023-08-06T05:50:41;28.75;76.48
71039;SHT30;58692;43.212;27.908;2023-08-06T05:53:06;28.75;76.33
71039;SHT30;58692;43.212;27.908;2023-08-06T05:55:32;28.25;78.41
71039;SHT30;58692;43.212;27.908;2023-08-06T05:57:58;28.76;76.68
71039;SHT30;58692;43.212;27.908;2023-08-06T06:00:24;28.90;76.51
71039;SHT30;58692;43.212;27.908;2023-08-06T06:02:49;28.99;76.30
71039;SHT30;58692;43.212;27.908;2023-08-06T06:05:15;29.16;74.66
71039;SHT30;58692;43.212;27.908;2023-08-06T06:07:40;29.51;74.29
71039;SHT30;58692;43.212;27.908;2023-08-06T06:10:07;29.72;73.71
71039;SHT30;58692;43.212;27.908;2023-08-06T06:12:32;30.11;72.30
71039;SHT30;58692;43.212;27.908;2023-08-06T06:14:58;29.98;72.63
71039;SHT30;58692;43.212;27.908;2023-08-06T06:17:23;29.74;73.83
71039;SHT30;58692;43.212;27.908;2023-08-06T06:19:49;29.93;73.44
71039;SHT30;58692;43.212;27.908;2023-08-06T06:22:14;29.75;73.98
71039;SHT30;58692;43.212;27.908;2023-08-06T06:24:40;29.62;74.20
71039;SHT30;58692;43.212;27.908;2023-08-06T06:27:05;29.40;74.34
71039;SHT30;58692;43.212;27.908;2023-08-06T06:29:31;29.74;74.04
71039;SHT30;58692;43.212;27.908;2023-08-06T06:31:56;30.05;72.82
71039;SHT30;58692;43.212;27.908;2023-08-06T06:34:22;30.53;71.71
71039;SHT30;58692;43.212;27.908;2023-08-06T06:36:47;30.62;71.14
71039;SHT30;58692;43.212;27.908;2023-08-06T06:39:13;30.59;71.11
71039;SHT30;58692;43.212;27.908;2023-08-06T06:41:38;30.94;70.52
71039;SHT30;58692;43.212;27.908;2023-08-06T06:44:05;30.70;70.85
71039;SHT30;58692;43.212;27.908;2023-08-06T06:46:31;30.72;70.48
71039;SHT30;58692;43.212;27.908;2023-08-06T06:48:56;30.86;70.48
71039;SHT30;58692;43.212;27.908;2023-08-06T06:51:22;30.76;70.58
71039;SHT30;58692;43.212;27.908;2023-08-06T06:53:47;30.94;70.16
71039;SHT30;58692;43.212;27.908;2023-08-06T06:56:13;30.82;70.28
71039;SHT30;58692;43.212;27.908;2023-08-06T06:58:38;30.94;70.27
71039;SHT30;58692;43.212;27.908;2023-08-06T07:01:06;30.63;70.65
71039;SHT30;58692;43.212;27.908;2023-08-06T07:03:32;30.52;71.34
71039;SHT30;58692;43.212;27.908;2023-08-06T07:05:58;30.36;71.05
71039;SHT30;58692;43.212;27.908;2023-08-06T07:08:24;30.56;70.59
71039;SHT30;58692;43.212;27.908;2023-08-06T07:10:49;30.55;70.69
71039;SHT30;58692;43.212;27.908;2023-08-06T07:13:15;30.23;71.17
71039;SHT30;58692;43.212;27.908;2023-08-06T07:15:42;30.63;70.74
71039;SHT30;58692;43.212;27.908;2023-08-06T07:18:07;30.98;69.78
71039;SHT30;58692;43.212;27.908;2023-08-06T07:20:33;31.10;69.74
71039;SHT30;58692;43.212;27.908;2023-08-06T07:23:00;31.45;69.11
71039;SHT30;58692;43.212;27.908;2023-08-06T07:25:25;31.31;69.07
71039;SHT30;58692;43.212;27.908;2023-08-06T07:27:51;31.31;69.50
71039;SHT30;58692;43.212;27.908;2023-08-06T07:30:16;31.78;68.59
71039;SHT30;58692;43.212;27.908;2023-08-06T07:32:42;31.85;67.86
71039;SHT30;58692;43.212;27.908;2023-08-06T07:35:08;31.85;67.80
71039;SHT30;58692;43.212;27.908;2023-08-06T07:37:39;31.01;70.08
71039;SHT30;58692;43.212;27.908;2023-08-06T07:40:05;31.13;69.66
71039;SHT30;58692;43.212;27.908;2023-08-06T07:42:30;31.30;69.14
71039;SHT30;58692;43.212;27.908;2023-08-06T07:44:58;31.26;69.39
71039;SHT30;58692;43.212;27.908;2023-08-06T07:47:24;31.58;68.69
71039;SHT30;58692;43.212;27.908;2023-08-06T07:49:49;32.50;66.73
71039;SHT30;58692;43.212;27.908;2023-08-06T07:52:15;32.39;65.97
71039;SHT30;58692;43.212;27.908;2023-08-06T07:54:40;32.64;65.09
71039;SHT30;58692;43.212;27.908;2023-08-06T07:57:06;32.13;67.04
71039;SHT30;58692;43.212;27.908;2023-08-06T07:59:31;32.13;66.45
71039;SHT30;58692;43.212;27.908;2023-08-06T08:01:57;32.43;65.97
71039;SHT30;58692;43.212;27.908;2023-08-06T08:04:23;32.02;66.31
71039;SHT30;58692;43.212;27.908;2023-08-06T08:06:49;31.62;66.09
71039;SHT30;58692;43.212;27.908;2023-08-06T08:09:14;31.57;66.79
71039;SHT30;58692;43.212;27.908;2023-08-06T08:11:41;31.92;66.26
71039;SHT30;58692;43.212;27.908;2023-08-06T08:14:06;32.10;65.75
71039;SHT30;58692;43.212;27.908;2023-08-06T08:16:32;31.92;65.54
71039;SHT30;58692;43.212;27.908;2023-08-06T08:18:57;31.62;66.34
71039;SHT30;58692;43.212;27.908;2023-08-06T08:21:23;31.95;66.28
71039;SHT30;58692;43.212;27.908;2023-08-06T08:23:50;32.56;65.04
71039;SHT30;58692;43.212;27.908;2023-08-06T08:26:15;31.93;66.14
71039;SHT30;58692;43.212;27.908;2023-08-06T08:28:41;31.52;67.85
71039;SHT30;58692;43.212;27.908;2023-08-06T08:31:10;32.30;66.09
71039;SHT30;58692;43.212;27.908;2023-08-06T08:33:37;33.00;64.12
71039;SHT30;58692;43.212;27.908;2023-08-06T08:36:03;32.49;64.73
71039;SHT30;58692;43.212;27.908;2023-08-06T08:38:28;32.35;63.70
71039;SHT30;58692;43.212;27.908;2023-08-06T08:40:54;32.77;64.46
71039;SHT30;58692;43.212;27.908;2023-08-06T08:43:21;33.31;63.31
71039;SHT30;58692;43.212;27.908;2023-08-06T08:45:50;32.06;66.07
71039;SHT30;58692;43.212;27.908;2023-08-06T08:48:16;31.59;66.16
71039;SHT30;58692;43.212;27.908;2023-08-06T08:50:44;32.16;66.19
71039;SHT30;58692;43.212;27.908;2023-08-06T08:53:11;32.01;66.51
71039;SHT30;58692;43.212;27.908;2023-08-06T08:55:38;32.23;66.23
71039;SHT30;58692;43.212;27.908;2023-08-06T08:58:04;32.23;66.12
71039;SHT30;58692;43.212;27.908;2023-08-06T09:00:30;32.33;66.17
71039;SHT30;58692;43.212;27.908;2023-08-06T09:02:56;32.76;65.03
71039;SHT30;58692;43.212;27.908;2023-08-06T09:05:26;32.35;65.42
71039;SHT30;58692;43.212;27.908;2023-08-06T09:07:54;32.67;64.96
71039;SHT30;58692;43.212;27.908;2023-08-06T09:10:20;32.66;65.58
71039;SHT30;58692;43.212;27.908;2023-08-06T09:12:50;33.04;64.30
71039;SHT30;58692;43.212;27.908;2023-08-06T09:15:16;34.26;61.15
71039;SHT30;58692;43.212;27.908;2023-08-06T09:17:41;33.38;62.28
71039;SHT30;58692;43.212;27.908;2023-08-06T09:20:11;34.19;60.91
71039;SHT30;58692;43.212;27.908;2023-08-06T09:22:36;33.55;62.01
71039;SHT30;58692;43.212;27.908;2023-08-06T09:25:02;33.04;63.71
71039;SHT30;58692;43.212;27.908;2023-08-06T09:27:29;32.71;64.13
71039;SHT30;58692;43.212;27.908;2023-08-06T09:29:55;32.46;65.14
71039;SHT30;58692;43.212;27.908;2023-08-06T09:32:20;32.25;65.88
71039;SHT30;58692;43.212;27.908;2023-08-06T09:34:46;32.19;65.90
71039;SHT30;58692;43.212;27.908;2023-08-06T09:37:11;31.99;66.49
71039;SHT30;58692;43.212;27.908;2023-08-06T09:39:39;31.69;66.33
71039;SHT30;58692;43.212;27.908;2023-08-06T09:42:05;31.90;66.81
71039;SHT30;58692;43.212;27.908;2023-08-06T09:44:33;32.55;64.91
71039;SHT30;58692;43.212;27.908;2023-08-06T09:47:00;32.08;66.84
71039;SHT30;58692;43.212;27.908;2023-08-06T09:49:39;31.89;66.14
71039;SHT30;58692;43.212;27.908;2023-08-06T09:52:10;31.57;67.94
71039;SHT30;58692;43.212;27.908;2023-08-06T09:54:37;31.96;67.21
71039;SHT30;58692;43.212;27.908;2023-08-06T09:57:02;32.08;66.83
71039;SHT30;58692;43.212;27.908;2023-08-06T09:59:29;32.88;65.23
71039;SHT30;58692;43.212;27.908;2023-08-06T10:01:56;32.77;64.35
71039;SHT30;58692;43.212;27.908;2023-08-06T10:04:22;32.66;65.39
71039;SHT30;58692;43.212;27.908;2023-08-06T10:06:48;32.13;66.54
71039;SHT30;58692;43.212;27.908;2023-08-06T10:09:13;31.77;67.75
71039;SHT30;58692;43.212;27.908;2023-08-06T10:11:40;31.58;67.59
71039;SHT30;58692;43.212;27.908;2023-08-06T10:14:11;31.98;66.76
71039;SHT30;58692;43.212;27.908;2023-08-06T10:16:38;31.58;67.78
71039;SHT30;58692;43.212;27.908;2023-08-06T10:19:07;31.95;67.59
71039;SHT30;58692;43.212;27.908;2023-08-06T10:21:34;32.64;66.02
71039;SHT30;58692;43.212;27.908;2023-08-06T10:23:59;32.80;65.60
71039;SHT30;58692;43.212;27.908;2023-08-06T10:26:27;32.48;65.42
71039;SHT30;58692;43.212;27.908;2023-08-06T10:28:54;32.73;65.80
71039;SHT30;58692;43.212;27.908;2023-08-06T10:31:20;32.57;66.02
71039;SHT30;58692;43.212;27.908;2023-08-06T10:33:47;33.18;64.62
71039;SHT30;58692;43.212;27.908;2023-08-06T10:36:14;33.24;64.12
71039;SHT30;58692;43.212;27.908;2023-08-06T10:38:48;33.04;63.35
71039;SHT30;58692;43.212;27.908;2023-08-06T10:43:42;33.06;64.44
71039;SHT30;58692;43.212;27.908;2023-08-06T10:46:22;32.76;64.81
71039;SHT30;58692;43.212;27.908;2023-08-06T10:48:47;31.93;67.02
71039;SHT30;58692;43.212;27.908;2023-08-06T10:51:14;31.38;68.64
71039;SHT30;58692;43.212;27.908;2023-08-06T10:53:43;31.68;67.81
71039;SHT30;58692;43.212;27.908;2023-08-06T10:56:12;31.84;67.66
71039;SHT30;58692;43.212;27.908;2023-08-06T10:58:38;31.92;67.38
71039;SHT30;58692;43.212;27.908;2023-08-06T11:01:04;32.04;67.44
71039;SHT30;58692;43.212;27.908;2023-08-06T11:03:31;32.99;65.30
71039;SHT30;58692;43.212;27.908;2023-08-06T11:05:57;33.07;64.94
71039;SHT30;58692;43.212;27.908;2023-08-06T11:08:28;32.92;65.31
71039;SHT30;58692;43.212;27.908;2023-08-06T11:10:54;33.07;64.85
71039;SHT30;58692;43.212;27.908;2023-08-06T11:13:21;33.25;64.64
71039;SHT30;58692;43.212;27.908;2023-08-06T11:15:46;32.81;65.44
71039;SHT30;58692;43.212;27.908;2023-08-06T11:18:12;33.58;63.90
71039;SHT30;58692;43.212;27.908;2023-08-06T11:20:39;32.57;65.65
71039;SHT30;58692;43.212;27.908;2023-08-06T11:23:05;31.48;69.26
71039;SHT30;58692;43.212;27.908;2023-08-06T11:25:30;31.54;68.89
71039;SHT30;58692;43.212;27.908;2023-08-06T11:27:56;31.78;68.38
71039;SHT30;58692;43.212;27.908;2023-08-06T11:30:21;31.62;68.94
71039;SHT30;58692;43.212;27.908;2023-08-06T11:32:48;31.99;68.09
71039;SHT30;58692;43.212;27.908;2023-08-06T11:35:14;31.75;68.78
71039;SHT30;58692;43.212;27.908;2023-08-06T11:37:45;32.39;67.18
71039;SHT30;58692;43.212;27.908;2023-08-06T11:40:14;32.04;68.08
71039;SHT30;58692;43.212;27.908;2023-08-06T11:42:40;31.04;70.51
71039;SHT30;58692;43.212;27.908;2023-08-06T11:45:06;31.16;70.56
71039;SHT30;58692;43.212;27.908;2023-08-06T11:47:34;30.73;70.81
71039;SHT30;58692;43.212;27.908;2023-08-06T11:49:59;30.40;72.67
71039;SHT30;58692;43.212;27.908;2023-08-06T11:52:25;30.04;74.11
71039;SHT30;58692;43.212;27.908;2023-08-06T11:55:07;30.11;74.07
71039;SHT30;58692;43.212;27.908;2023-08-06T11:57:37;29.55;75.28
71039;SHT30;58692;43.212;27.908;2023-08-06T12:00:06;29.10;77.06
71039;SHT30;58692;43.212;27.908;2023-08-06T12:02:33;28.60;78.46
71039;SHT30;58692;43.212;27.908;2023-08-06T12:07:29;29.00;88.13
71039;SHT30;58692;43.212;27.908;2023-08-06T12:09:56;29.51;81.45
71039;SHT30;58692;43.212;27.908;2023-08-06T12:12:21;29.58;77.52
71039;SHT30;58692;43.212;27.908;2023-08-06T12:14:47;29.78;77.96
71039;SHT30;58692;43.212;27.908;2023-08-06T12:17:12;29.91;75.91
71039;SHT30;58692;43.212;27.908;2023-08-06T12:19:38;30.05;75.42
71039;SHT30;58692;43.212;27.908;2023-08-06T12:22:03;29.75;73.87
71039;SHT30;58692;43.212;27.908;2023-08-06T12:24:29;29.89;77.17
71039;SHT30;58692;43.212;27.908;2023-08-06T12:26:57;29.88;75.44
71039;SHT30;58692;43.212;27.908;2023-08-06T12:29:25;29.38;73.73
71039;SHT30;58692;43.212;27.908;2023-08-06T12:31:51;28.62;75.73
71039;SHT30;58692;43.212;27.908;2023-08-06T12:34:16;28.58;74.28
71039;SHT30;58692;43.212;27.908;2023-08-06T12:36:42;28.63;76.00
71039;SHT30;58692;43.212;27.908;2023-08-06T12:39:07;28.84;73.73
71039;SHT30;58692;43.212;27.908;2023-08-06T12:41:33;28.62;73.59
71039;SHT30;58692;43.212;27.908;2023-08-06T12:43:58;28.48;74.18
71039;SHT30;58692;43.212;27.908;2023-08-06T12:46:24;28.55;74.79
71039;SHT30;58692;43.212;27.908;2023-08-06T12:48:49;28.53;76.31
71039;SHT30;58692;43.212;27.908;2023-08-06T12:51:16;28.11;74.02
71039;SHT30;58692;43.212;27.908;2023-08-06T12:53:41;28.32;74.16
71039;SHT30;58692;43.212;27.908;2023-08-06T12:56:07;28.19;74.76
71039;SHT30;58692;43.212;27.908;2023-08-06T12:58:32;28.63;74.15
71039;SHT30;58692;43.212;27.908;2023-08-06T13:00:57;28.93;72.59
71039;SHT30;58692;43.212;27.908;2023-08-06T13:03:23;28.93;72.37
71039;SHT30;58692;43.212;27.908;2023-08-06T13:05:48;29.07;72.72
71039;SHT30;58692;43.212;27.908;2023-08-06T13:08:14;29.30;72.90
71039;SHT30;58692;43.212;27.908;2023-08-06T13:10:39;29.55;70.58
71039;SHT30;58692;43.212;27.908;2023-08-06T13:13:05;29.29;72.23
71039;SHT30;58692;43.212;27.908;2023-08-06T13:15:30;29.19;72.81
71039;SHT30;58692;43.212;27.908;2023-08-06T13:17:56;29.21;70.57
71039;SHT30;58692;43.212;27.908;2023-08-06T13:20:21;29.34;70.95
71039;SHT30;58692;43.212;27.908;2023-08-06T13:22:48;29.44;70.95
71039;SHT30;58692;43.212;27.908;2023-08-06T13:25:16;29.37;71.49
71039;SHT30;58692;43.212;27.908;2023-08-06T13:27:42;29.10;71.91
71039;SHT30;58692;43.212;27.908;2023-08-06T13:30:09;28.96;70.21
71039;SHT30;58692;43.212;27.908;2023-08-06T13:32:35;28.90;70.03
71039;SHT30;58692;43.212;27.908;2023-08-06T13:35:03;28.84;70.49
71039;SHT30;58692;43.212;27.908;2023-08-06T13:37:29;29.14;68.99
71039;SHT30;58692;43.212;27.908;2023-08-06T13:39:54;29.17;68.65
71039;SHT30;58692;43.212;27.908;2023-08-06T13:42:20;29.44;67.91
71039;SHT30;58692;43.212;27.908;2023-08-06T13:44:45;29.23;68.73
71039;SHT30;58692;43.212;27.908;2023-08-06T13:47:11;29.34;67.95
71039;SHT30;58692;43.212;27.908;2023-08-06T13:49:36;29.47;67.17
71039;SHT30;58692;43.212;27.908;2023-08-06T13:52:02;29.53;65.68
71039;SHT30;58692;43.212;27.908;2023-08-06T13:54:27;29.38;66.32
71039;SHT30;58692;43.212;27.908;2023-08-06T13:56:53;29.26;67.19
71039;SHT30;58692;43.212;27.908;2023-08-06T13:59:18;29.07;67.93
71039;SHT30;58692;43.212;27.908;2023-08-06T14:01:45;29.10;67.77
71039;SHT30;58692;43.212;27.908;2023-08-06T14:04:11;29.19;67.60
71039;SHT30;58692;43.212;27.908;2023-08-06T14:06:37;29.10;67.77
71039;SHT30;58692;43.212;27.908;2023-08-06T14:09:03;28.89;68.14
71039;SHT30;58692;43.212;27.908;2023-08-06T14:11:29;28.97;67.65
71039;SHT30;58692;43.212;27.908;2023-08-06T14:13:55;29.14;67.60
71039;SHT30;58692;43.212;27.908;2023-08-06T14:16:20;29.30;67.35
71039;SHT30;58692;43.212;27.908;2023-08-06T14:18:46;29.34;65.95
71039;SHT30;58692;43.212;27.908;2023-08-06T14:21:11;29.21;66.16
71039;SHT30;58692;43.212;27.908;2023-08-06T14:23:37;29.03;66.64
71039;SHT30;58692;43.212;27.908;2023-08-06T14:26:02;29.10;66.63
71039;SHT30;58692;43.212;27.908;2023-08-06T14:28:27;29.21;67.17
71039;SHT30;58692;43.212;27.908;2023-08-06T14:30:53;29.49;66.12
71039;SHT30;58692;43.212;27.908;2023-08-06T14:33:19;29.68;65.81
71039;SHT30;58692;43.212;27.908;2023-08-06T14:35:44;29.60;65.04
71039;SHT30;58692;43.212;27.908;2023-08-06T14:38:09;29.67;65.26
71039;SHT30;58692;43.212;27.908;2023-08-06T14:40:36;29.50;65.28
71039;SHT30;58692;43.212;27.908;2023-08-06T14:43:05;29.53;65.45
71039;SHT30;58692;43.212;27.908;2023-08-06T14:45:31;29.70;64.23
71039;SHT30;58692;43.212;27.908;2023-08-06T14:47:56;29.75;63.91
71039;SHT30;58692;43.212;27.908;2023-08-06T14:50:22;29.70;63.57
71039;SHT30;58692;43.212;27.908;2023-08-06T14:52:48;29.72;63.06
71039;SHT30;58692;43.212;27.908;2023-08-06T14:55:29;29.62;63.41
71039;SHT30;58692;43.212;27.908;2023-08-06T14:57:54;29.72;63.87
71039;SHT30;58692;43.212;27.908;2023-08-06T15:00:20;29.65;62.23
71039;SHT30;58692;43.212;27.908;2023-08-06T15:02:46;29.72;62.06
71039;SHT30;58692;43.212;27.908;2023-08-06T15:05:12;29.72;62.67
71039;SHT30;58692;43.212;27.908;2023-08-06T15:07:37;29.68;61.44
71039;SHT30;58692;43.212;27.908;2023-08-06T15:10:05;29.71;61.75
71039;SHT30;58692;43.212;27.908;2023-08-06T15:12:31;29.60;61.37
71039;SHT30;58692;43.212;27.908;2023-08-06T15:14:58;29.61;61.86
71039;SHT30;58692;43.212;27.908;2023-08-06T15:17:26;29.68;61.77